VLSK

Savannakhet Airport

Lao People’s Democratic Republic
TAF VLSK 201100Z 2012/2112 18004KT 4000 BR SCT016 SCT040 BKN100
Issued Valid From Valid To
Jul-20 @ 11:00 UTC
(3 hours ago)
Jul-20 @ 12:00 UTC
(2 hours ago)
Jul-21 @ 12:00 UTC
(in 22 hours)
Jul-20 @ 12:00 to Jul-21 @ 12:00
TAF VLSK 201100Z 2012/2112 18004KT 4000 BR SCT016 SCT040 BKN100
Wind Visibility Clouds Conditions
180° at 4 knots 4,007 meters
  • Scattered at 1,600' AGL
  • Scattered at 4,000' AGL
  • Broken at 10,000' AGL
  • Mist
TAF VLSK 201100Z 2012/2112 18004KT 4000 BR SCT016 SCT040 BKN100
Issued Jul-20 @ 11:00 UTC
(3 hours ago)
Valid From Jul-20 @ 12:00 UTC
(2 hours ago)
Valid To Jul-21 @ 12:00 UTC
(in 22 hours)
Jul-20 @ 12:00 - Jul-21 @ 12:00
Wind Visibility
180° at 4 knots 4,007 meters
Clouds
  • Scattered at 1,600' AGL
  • Scattered at 4,000' AGL
  • Broken at 10,000' AGL
Conditions
  • Mist